<?xml version="1.0" encoding="UTF-8" standalone="no" ?>
<gpx xmlns="http://www.topografix.com/GPX/1/1" xmlns:xsi="http://www.w3.org/2001/XMLSchema-instance" xsi:schemaLocation="http://www.topografix.com/GPX/1/1 http://www.topografix.com/GPX/1/1/gpx.xsd" version="1.1" creator="VisuGPX - https://www.visugpx.com">
  <metadata>
    <name>Sederon - J3 apm La Rochette du Buis</name>
    <desc><![CDATA[Sederon - J3 apm La Rochette du Buis  eeeeeeeeeeeeeeeeeeeeeeeeeeeeeeeeeeeeeeeeeeeeeee]]></desc>
  </metadata>
  <trk>
    <name><![CDATA[9257195-Sederon - J4 matin]]></name>
    <trkseg>
      <trkpt lat="44.2292" lon="5.50519">
        <ele>834</ele>
        <time>2018-10-29T11:01:50Z</time>
      </trkpt>
      <trkpt lat="44.22968" lon="5.50401">
        <ele>832</ele>
        <time>2018-10-29T11:02:50Z</time>
      </trkpt>
      <trkpt lat="44.23004" lon="5.50263">
        <ele>825</ele>
        <time>2018-10-29T11:03:50Z</time>
      </trkpt>
      <trkpt lat="44.23136" lon="5.50202">
        <ele>827</ele>
        <time>2018-10-29T11:04:50Z</time>
      </trkpt>
      <trkpt lat="44.23381" lon="5.5008">
        <ele>832</ele>
        <time>2018-10-29T11:05:50Z</time>
      </trkpt>
      <trkpt lat="44.2363" lon="5.50136">
        <ele>838</ele>
        <time>2018-10-29T11:06:50Z</time>
      </trkpt>
      <trkpt lat="44.23541" lon="5.4988">
        <ele>831</ele>
        <time>2018-10-29T11:07:50Z</time>
      </trkpt>
      <trkpt lat="44.23578" lon="5.49825">
        <ele>830</ele>
        <time>2018-10-29T11:08:50Z</time>
      </trkpt>
      <trkpt lat="44.23549" lon="5.49752">
        <ele>832</ele>
        <time>2018-10-29T11:09:50Z</time>
      </trkpt>
      <trkpt lat="44.23478" lon="5.4971">
        <ele>830</ele>
        <time>2018-10-29T11:10:50Z</time>
      </trkpt>
      <trkpt lat="44.2346" lon="5.49673">
        <ele>829</ele>
        <time>2018-10-29T11:11:50Z</time>
      </trkpt>
      <trkpt lat="44.23404" lon="5.49555">
        <ele>832</ele>
        <time>2018-10-29T11:12:50Z</time>
      </trkpt>
      <trkpt lat="44.23393" lon="5.49512">
        <ele>833</ele>
        <time>2018-10-29T11:13:50Z</time>
      </trkpt>
      <trkpt lat="44.23378" lon="5.49511">
        <ele>833</ele>
        <time>2018-10-29T11:14:50Z</time>
      </trkpt>
      <trkpt lat="44.23381" lon="5.49476">
        <ele>834</ele>
        <time>2018-10-29T11:15:50Z</time>
      </trkpt>
      <trkpt lat="44.23355" lon="5.49427">
        <ele>836</ele>
        <time>2018-10-29T11:16:50Z</time>
      </trkpt>
      <trkpt lat="44.23428" lon="5.49272">
        <ele>842</ele>
        <time>2018-10-29T11:17:50Z</time>
      </trkpt>
      <trkpt lat="44.23518" lon="5.4899">
        <ele>862</ele>
        <time>2018-10-29T11:18:50Z</time>
      </trkpt>
      <trkpt lat="44.23579" lon="5.48813">
        <ele>883</ele>
        <time>2018-10-29T11:19:50Z</time>
      </trkpt>
      <trkpt lat="44.23587" lon="5.48709">
        <ele>898</ele>
        <time>2018-10-29T11:20:50Z</time>
      </trkpt>
      <trkpt lat="44.23536" lon="5.48691">
        <ele>896</ele>
        <time>2018-10-29T11:21:50Z</time>
      </trkpt>
      <trkpt lat="44.23479" lon="5.48622">
        <ele>898</ele>
        <time>2018-10-29T11:22:50Z</time>
      </trkpt>
      <trkpt lat="44.23442" lon="5.48559">
        <ele>899</ele>
        <time>2018-10-29T11:23:50Z</time>
      </trkpt>
      <trkpt lat="44.23397" lon="5.48507">
        <ele>896</ele>
        <time>2018-10-29T11:24:50Z</time>
      </trkpt>
      <trkpt lat="44.23366" lon="5.48447">
        <ele>898</ele>
        <time>2018-10-29T11:25:50Z</time>
      </trkpt>
      <trkpt lat="44.23297" lon="5.48171">
        <ele>897</ele>
        <time>2018-10-29T11:26:50Z</time>
      </trkpt>
      <trkpt lat="44.23297" lon="5.48025">
        <ele>901</ele>
        <time>2018-10-29T11:27:50Z</time>
      </trkpt>
      <trkpt lat="44.23288" lon="5.47969">
        <ele>900</ele>
        <time>2018-10-29T11:28:50Z</time>
      </trkpt>
      <trkpt lat="44.23314" lon="5.47848">
        <ele>908</ele>
        <time>2018-10-29T11:29:50Z</time>
      </trkpt>
      <trkpt lat="44.23305" lon="5.4772">
        <ele>915</ele>
        <time>2018-10-29T11:30:50Z</time>
      </trkpt>
      <trkpt lat="44.23302" lon="5.47666">
        <ele>918</ele>
        <time>2018-10-29T11:31:50Z</time>
      </trkpt>
      <trkpt lat="44.23234" lon="5.47673">
        <ele>902</ele>
        <time>2018-10-29T11:32:50Z</time>
      </trkpt>
      <trkpt lat="44.23136" lon="5.47687">
        <ele>892</ele>
        <time>2018-10-29T11:33:50Z</time>
      </trkpt>
      <trkpt lat="44.23084" lon="5.47677">
        <ele>894</ele>
        <time>2018-10-29T11:34:50Z</time>
      </trkpt>
      <trkpt lat="44.23063" lon="5.47583">
        <ele>895</ele>
        <time>2018-10-29T11:35:50Z</time>
      </trkpt>
      <trkpt lat="44.23028" lon="5.47536">
        <ele>900</ele>
        <time>2018-10-29T11:36:50Z</time>
      </trkpt>
      <trkpt lat="44.22983" lon="5.47455">
        <ele>908</ele>
        <time>2018-10-29T11:37:50Z</time>
      </trkpt>
      <trkpt lat="44.22955" lon="5.47307">
        <ele>908</ele>
        <time>2018-10-29T11:38:50Z</time>
      </trkpt>
      <trkpt lat="44.22895" lon="5.4722">
        <ele>919</ele>
        <time>2018-10-29T11:39:50Z</time>
      </trkpt>
      <trkpt lat="44.22843" lon="5.47164">
        <ele>935</ele>
        <time>2018-10-29T11:40:50Z</time>
      </trkpt>
      <trkpt lat="44.22864" lon="5.47034">
        <ele>936</ele>
        <time>2018-10-29T11:41:50Z</time>
      </trkpt>
      <trkpt lat="44.22871" lon="5.4693">
        <ele>941</ele>
        <time>2018-10-29T11:42:50Z</time>
      </trkpt>
      <trkpt lat="44.2285" lon="5.46821">
        <ele>938</ele>
        <time>2018-10-29T11:43:50Z</time>
      </trkpt>
      <trkpt lat="44.22807" lon="5.46768">
        <ele>938</ele>
        <time>2018-10-29T11:44:50Z</time>
      </trkpt>
      <trkpt lat="44.22767" lon="5.46697">
        <ele>944</ele>
        <time>2018-10-29T11:45:50Z</time>
      </trkpt>
      <trkpt lat="44.22731" lon="5.46662">
        <ele>946</ele>
        <time>2018-10-29T11:46:50Z</time>
      </trkpt>
      <trkpt lat="44.22751" lon="5.46614">
        <ele>953</ele>
        <time>2018-10-29T11:47:50Z</time>
      </trkpt>
      <trkpt lat="44.22759" lon="5.46562">
        <ele>957</ele>
        <time>2018-10-29T11:48:50Z</time>
      </trkpt>
      <trkpt lat="44.22766" lon="5.46515">
        <ele>956</ele>
        <time>2018-10-29T11:49:50Z</time>
      </trkpt>
      <trkpt lat="44.22757" lon="5.46488">
        <ele>956</ele>
        <time>2018-10-29T11:50:50Z</time>
      </trkpt>
      <trkpt lat="44.22738" lon="5.46459">
        <ele>955</ele>
        <time>2018-10-29T11:51:50Z</time>
      </trkpt>
      <trkpt lat="44.22721" lon="5.46448">
        <ele>954</ele>
        <time>2018-10-29T11:52:50Z</time>
      </trkpt>
      <trkpt lat="44.22724" lon="5.46425">
        <ele>954</ele>
        <time>2018-10-29T11:53:50Z</time>
      </trkpt>
      <trkpt lat="44.22711" lon="5.46431">
        <ele>954</ele>
        <time>2018-10-29T11:54:50Z</time>
      </trkpt>
      <trkpt lat="44.22701" lon="5.46444">
        <ele>954</ele>
        <time>2018-10-29T11:55:50Z</time>
      </trkpt>
      <trkpt lat="44.22704" lon="5.46412">
        <ele>954</ele>
        <time>2018-10-29T11:56:50Z</time>
      </trkpt>
      <trkpt lat="44.22698" lon="5.46384">
        <ele>952</ele>
        <time>2018-10-29T11:57:50Z</time>
      </trkpt>
      <trkpt lat="44.22729" lon="5.46357">
        <ele>947</ele>
        <time>2018-10-29T11:58:50Z</time>
      </trkpt>
      <trkpt lat="44.22759" lon="5.4633">
        <ele>939</ele>
        <time>2018-10-29T11:59:50Z</time>
      </trkpt>
      <trkpt lat="44.2273" lon="5.46324">
        <ele>943</ele>
        <time>2018-10-29T12:00:50Z</time>
      </trkpt>
      <trkpt lat="44.22702" lon="5.46333">
        <ele>948</ele>
        <time>2018-10-29T12:01:50Z</time>
      </trkpt>
      <trkpt lat="44.22686" lon="5.46327">
        <ele>949</ele>
        <time>2018-10-29T12:02:50Z</time>
      </trkpt>
      <trkpt lat="44.22651" lon="5.46278">
        <ele>947</ele>
        <time>2018-10-29T12:03:50Z</time>
      </trkpt>
      <trkpt lat="44.2266" lon="5.46172">
        <ele>938</ele>
        <time>2018-10-29T12:04:50Z</time>
      </trkpt>
      <trkpt lat="44.22739" lon="5.4606">
        <ele>929</ele>
        <time>2018-10-29T12:05:50Z</time>
      </trkpt>
      <trkpt lat="44.22761" lon="5.45989">
        <ele>923</ele>
        <time>2018-10-29T12:06:50Z</time>
      </trkpt>
      <trkpt lat="44.22904" lon="5.45856">
        <ele>905</ele>
        <time>2018-10-29T12:07:50Z</time>
      </trkpt>
      <trkpt lat="44.22916" lon="5.45787">
        <ele>906</ele>
        <time>2018-10-29T12:08:50Z</time>
      </trkpt>
      <trkpt lat="44.22917" lon="5.45666">
        <ele>905</ele>
        <time>2018-10-29T12:09:50Z</time>
      </trkpt>
      <trkpt lat="44.22899" lon="5.45591">
        <ele>902</ele>
        <time>2018-10-29T12:10:50Z</time>
      </trkpt>
      <trkpt lat="44.22904" lon="5.45493">
        <ele>904</ele>
        <time>2018-10-29T12:11:50Z</time>
      </trkpt>
      <trkpt lat="44.22993" lon="5.45327">
        <ele>899</ele>
        <time>2018-10-29T12:12:50Z</time>
      </trkpt>
      <trkpt lat="44.23045" lon="5.45277">
        <ele>895</ele>
        <time>2018-10-29T12:13:50Z</time>
      </trkpt>
      <trkpt lat="44.23081" lon="5.45199">
        <ele>895</ele>
        <time>2018-10-29T12:14:50Z</time>
      </trkpt>
      <trkpt lat="44.23108" lon="5.4512">
        <ele>894</ele>
        <time>2018-10-29T12:15:50Z</time>
      </trkpt>
      <trkpt lat="44.23125" lon="5.45019">
        <ele>891</ele>
        <time>2018-10-29T12:16:50Z</time>
      </trkpt>
      <trkpt lat="44.23134" lon="5.44972">
        <ele>890</ele>
        <time>2018-10-29T12:17:50Z</time>
      </trkpt>
      <trkpt lat="44.23217" lon="5.44829">
        <ele>885</ele>
        <time>2018-10-29T12:18:50Z</time>
      </trkpt>
      <trkpt lat="44.23266" lon="5.44716">
        <ele>881</ele>
        <time>2018-10-29T12:19:50Z</time>
      </trkpt>
      <trkpt lat="44.23342" lon="5.44622">
        <ele>877</ele>
        <time>2018-10-29T12:20:50Z</time>
      </trkpt>
      <trkpt lat="44.2347" lon="5.44328">
        <ele>870</ele>
        <time>2018-10-29T12:21:50Z</time>
      </trkpt>
      <trkpt lat="44.23538" lon="5.44189">
        <ele>859</ele>
        <time>2018-10-29T12:22:50Z</time>
      </trkpt>
      <trkpt lat="44.23592" lon="5.44068">
        <ele>854</ele>
        <time>2018-10-29T12:23:50Z</time>
      </trkpt>
      <trkpt lat="44.2361" lon="5.44001">
        <ele>851</ele>
        <time>2018-10-29T12:24:50Z</time>
      </trkpt>
      <trkpt lat="44.2365" lon="5.43941">
        <ele>850</ele>
        <time>2018-10-29T12:25:50Z</time>
      </trkpt>
      <trkpt lat="44.2365" lon="5.43878">
        <ele>847</ele>
        <time>2018-10-29T12:26:50Z</time>
      </trkpt>
      <trkpt lat="44.23699" lon="5.43812">
        <ele>843</ele>
        <time>2018-10-29T12:27:50Z</time>
      </trkpt>
      <trkpt lat="44.23755" lon="5.4381">
        <ele>842</ele>
        <time>2018-10-29T12:28:50Z</time>
      </trkpt>
      <trkpt lat="44.23813" lon="5.43839">
        <ele>836</ele>
        <time>2018-10-29T12:29:50Z</time>
      </trkpt>
      <trkpt lat="44.23879" lon="5.43828">
        <ele>832</ele>
        <time>2018-10-29T12:30:50Z</time>
      </trkpt>
      <trkpt lat="44.23903" lon="5.43781">
        <ele>832</ele>
        <time>2018-10-29T12:31:50Z</time>
      </trkpt>
      <trkpt lat="44.2394" lon="5.43797">
        <ele>831</ele>
        <time>2018-10-29T12:32:50Z</time>
      </trkpt>
      <trkpt lat="44.23938" lon="5.43907">
        <ele>824</ele>
        <time>2018-10-29T12:33:50Z</time>
      </trkpt>
      <trkpt lat="44.23984" lon="5.43936">
        <ele>823</ele>
        <time>2018-10-29T12:34:50Z</time>
      </trkpt>
      <trkpt lat="44.24077" lon="5.43956">
        <ele>815</ele>
        <time>2018-10-29T12:35:50Z</time>
      </trkpt>
      <trkpt lat="44.24156" lon="5.43983">
        <ele>808</ele>
        <time>2018-10-29T12:36:50Z</time>
      </trkpt>
      <trkpt lat="44.24218" lon="5.43934">
        <ele>810</ele>
        <time>2018-10-29T12:37:50Z</time>
      </trkpt>
      <trkpt lat="44.24287" lon="5.43878">
        <ele>808</ele>
        <time>2018-10-29T12:38:50Z</time>
      </trkpt>
      <trkpt lat="44.24411" lon="5.43923">
        <ele>803</ele>
        <time>2018-10-29T12:39:50Z</time>
      </trkpt>
      <trkpt lat="44.24499" lon="5.43954">
        <ele>799</ele>
        <time>2018-10-29T12:40:50Z</time>
      </trkpt>
      <trkpt lat="44.24613" lon="5.43978">
        <ele>794</ele>
        <time>2018-10-29T12:41:50Z</time>
      </trkpt>
      <trkpt lat="44.24741" lon="5.44012">
        <ele>794</ele>
        <time>2018-10-29T12:42:50Z</time>
      </trkpt>
      <trkpt lat="44.24794" lon="5.43997">
        <ele>795</ele>
        <time>2018-10-29T12:43:50Z</time>
      </trkpt>
      <trkpt lat="44.24832" lon="5.44019">
        <ele>792</ele>
        <time>2018-10-29T12:44:50Z</time>
      </trkpt>
      <trkpt lat="44.24905" lon="5.44014">
        <ele>791</ele>
        <time>2018-10-29T12:45:50Z</time>
      </trkpt>
      <trkpt lat="44.24997" lon="5.44021">
        <ele>788</ele>
        <time>2018-10-29T12:46:50Z</time>
      </trkpt>
      <trkpt lat="44.25165" lon="5.43949">
        <ele>786</ele>
        <time>2018-10-29T12:47:50Z</time>
      </trkpt>
      <trkpt lat="44.25285" lon="5.43858">
        <ele>781</ele>
        <time>2018-10-29T12:48:50Z</time>
      </trkpt>
      <trkpt lat="44.25361" lon="5.43844">
        <ele>773</ele>
        <time>2018-10-29T12:49:50Z</time>
      </trkpt>
      <trkpt lat="44.25418" lon="5.43768">
        <ele>771</ele>
        <time>2018-10-29T12:50:50Z</time>
      </trkpt>
      <trkpt lat="44.25502" lon="5.43748">
        <ele>766</ele>
        <time>2018-10-29T12:51:50Z</time>
      </trkpt>
      <trkpt lat="44.25597" lon="5.4359">
        <ele>764</ele>
        <time>2018-10-29T12:52:50Z</time>
      </trkpt>
      <trkpt lat="44.25592" lon="5.43415">
        <ele>770</ele>
        <time>2018-10-29T12:53:50Z</time>
      </trkpt>
      <trkpt lat="44.25637" lon="5.4331">
        <ele>770</ele>
        <time>2018-10-29T12:54:50Z</time>
      </trkpt>
      <trkpt lat="44.25646" lon="5.43232">
        <ele>773</ele>
        <time>2018-10-29T12:55:50Z</time>
      </trkpt>
      <trkpt lat="44.25725" lon="5.43153">
        <ele>771</ele>
        <time>2018-10-29T12:56:50Z</time>
      </trkpt>
      <trkpt lat="44.25771" lon="5.43095">
        <ele>772</ele>
        <time>2018-10-29T12:57:50Z</time>
      </trkpt>
      <trkpt lat="44.2589" lon="5.43048">
        <ele>762</ele>
        <time>2018-10-29T12:58:50Z</time>
      </trkpt>
      <trkpt lat="44.25951" lon="5.42998">
        <ele>760</ele>
        <time>2018-10-29T12:59:50Z</time>
      </trkpt>
      <trkpt lat="44.2596" lon="5.42944">
        <ele>762</ele>
        <time>2018-10-29T13:00:50Z</time>
      </trkpt>
      <trkpt lat="44.25992" lon="5.42859">
        <ele>762</ele>
        <time>2018-10-29T13:01:50Z</time>
      </trkpt>
      <trkpt lat="44.26136" lon="5.42779">
        <ele>758</ele>
        <time>2018-10-29T13:02:50Z</time>
      </trkpt>
      <trkpt lat="44.26167" lon="5.42758">
        <ele>759</ele>
        <time>2018-10-29T13:03:50Z</time>
      </trkpt>
      <trkpt lat="44.26209" lon="5.42595">
        <ele>773</ele>
        <time>2018-10-29T13:04:50Z</time>
      </trkpt>
      <trkpt lat="44.26275" lon="5.42435">
        <ele>779</ele>
        <time>2018-10-29T13:05:50Z</time>
      </trkpt>
      <trkpt lat="44.26386" lon="5.4237">
        <ele>782</ele>
        <time>2018-10-29T13:06:50Z</time>
      </trkpt>
      <trkpt lat="44.2645" lon="5.4239">
        <ele>774</ele>
        <time>2018-10-29T13:07:50Z</time>
      </trkpt>
      <trkpt lat="44.26541" lon="5.42355">
        <ele>763</ele>
        <time>2018-10-29T13:08:50Z</time>
      </trkpt>
      <trkpt lat="44.2665" lon="5.42287">
        <ele>748</ele>
        <time>2018-10-29T13:09:50Z</time>
      </trkpt>
      <trkpt lat="44.26729" lon="5.42274">
        <ele>742</ele>
        <time>2018-10-29T13:10:50Z</time>
      </trkpt>
      <trkpt lat="44.26752" lon="5.42319">
        <ele>740</ele>
        <time>2018-10-29T13:11:50Z</time>
      </trkpt>
      <trkpt lat="44.26786" lon="5.42253">
        <ele>742</ele>
        <time>2018-10-29T13:12:50Z</time>
      </trkpt>
      <trkpt lat="44.26832" lon="5.42162">
        <ele>753</ele>
        <time>2018-10-29T13:13:50Z</time>
      </trkpt>
      <trkpt lat="44.26871" lon="5.42106">
        <ele>767</ele>
        <time>2018-10-29T13:14:50Z</time>
      </trkpt>
      <trkpt lat="44.26912" lon="5.42">
        <ele>784</ele>
        <time>2018-10-29T13:15:50Z</time>
      </trkpt>
      <trkpt lat="44.26964" lon="5.41933">
        <ele>787</ele>
        <time>2018-10-29T13:16:50Z</time>
      </trkpt>
      <trkpt lat="44.27025" lon="5.41782">
        <ele>792</ele>
        <time>2018-10-29T13:17:50Z</time>
      </trkpt>
      <trkpt lat="44.27041" lon="5.41693">
        <ele>795</ele>
        <time>2018-10-29T13:18:50Z</time>
      </trkpt>
      <trkpt lat="44.27036" lon="5.4162">
        <ele>796</ele>
        <time>2018-10-29T13:19:50Z</time>
      </trkpt>
      <trkpt lat="44.2708" lon="5.41593">
        <ele>788</ele>
        <time>2018-10-29T13:20:50Z</time>
      </trkpt>
      <trkpt lat="44.27126" lon="5.41573">
        <ele>788</ele>
        <time>2018-10-29T13:21:50Z</time>
      </trkpt>
      <trkpt lat="44.27131" lon="5.41523">
        <ele>789</ele>
        <time>2018-10-29T13:22:50Z</time>
      </trkpt>
      <trkpt lat="44.27142" lon="5.41485">
        <ele>789</ele>
        <time>2018-10-29T13:23:50Z</time>
      </trkpt>
      <trkpt lat="44.27165" lon="5.41452">
        <ele>790</ele>
        <time>2018-10-29T13:24:50Z</time>
      </trkpt>
      <trkpt lat="44.27188" lon="5.4139">
        <ele>795</ele>
        <time>2018-10-29T13:25:50Z</time>
      </trkpt>
      <trkpt lat="44.2724" lon="5.41323">
        <ele>803</ele>
        <time>2018-10-29T13:26:50Z</time>
      </trkpt>
      <trkpt lat="44.2725" lon="5.41264">
        <ele>806</ele>
        <time>2018-10-29T13:27:50Z</time>
      </trkpt>
      <trkpt lat="44.27248" lon="5.41209">
        <ele>809</ele>
        <time>2018-10-29T13:28:50Z</time>
      </trkpt>
      <trkpt lat="44.27267" lon="5.41121">
        <ele>817</ele>
        <time>2018-10-29T13:29:50Z</time>
      </trkpt>
      <trkpt lat="44.27295" lon="5.41075">
        <ele>821</ele>
        <time>2018-10-29T13:30:50Z</time>
      </trkpt>
      <trkpt lat="44.27341" lon="5.41039">
        <ele>823</ele>
        <time>2018-10-29T13:31:50Z</time>
      </trkpt>
      <trkpt lat="44.27377" lon="5.41019">
        <ele>825</ele>
        <time>2018-10-29T13:32:50Z</time>
      </trkpt>
      <trkpt lat="44.27402" lon="5.41083">
        <ele>827</ele>
        <time>2018-10-29T13:33:50Z</time>
      </trkpt>
      <trkpt lat="44.27421" lon="5.41144">
        <ele>831</ele>
        <time>2018-10-29T13:34:50Z</time>
      </trkpt>
      <trkpt lat="44.27418" lon="5.41162">
        <ele>832</ele>
        <time>2018-10-29T13:35:50Z</time>
      </trkpt>
      <trkpt lat="44.27439" lon="5.41185">
        <ele>837</ele>
        <time>2018-10-29T13:36:50Z</time>
      </trkpt>
      <trkpt lat="44.27443" lon="5.41218">
        <ele>840</ele>
        <time>2018-10-29T13:37:50Z</time>
      </trkpt>
      <trkpt lat="44.27445" lon="5.41245">
        <ele>843</ele>
        <time>2018-10-29T13:38:50Z</time>
      </trkpt>
      <trkpt lat="44.27453" lon="5.41276">
        <ele>847</ele>
        <time>2018-10-29T13:39:50Z</time>
      </trkpt>
      <trkpt lat="44.27468" lon="5.41321">
        <ele>853</ele>
        <time>2018-10-29T13:40:50Z</time>
      </trkpt>
      <trkpt lat="44.27474" lon="5.41336">
        <ele>856</ele>
        <time>2018-10-29T13:41:50Z</time>
      </trkpt>
      <trkpt lat="44.2748" lon="5.41355">
        <ele>857</ele>
        <time>2018-10-29T13:42:50Z</time>
      </trkpt>
      <trkpt lat="44.2749" lon="5.4138">
        <ele>858</ele>
        <time>2018-10-29T13:43:50Z</time>
      </trkpt>
    </trkseg>
  </trk>
</gpx>